Time;durP1;ratioP1;P1;durP2;ratioP2;P2;SDS_P1;SDS_P2;PMS_P1;PMS_P2;Temp;Humidity;BMP_temperature;BMP_pressure;BME280_temperature;BME280_humidity;BME280_pressure;Samples;Min_cycle;Max_cycle;Signal;HPM_P1;HPM_P2
2023/01/10 00:00:33;;;;;;;8.40;3.65;;;3.90;99.90;;;;;;5064401;28;20025;-63
2023/01/10 00:02:59;;;;;;;8.80;3.35;;;3.90;99.90;;;;;;5063726;28;20028;-64
2023/01/10 00:05:24;;;;;;;7.35;3.00;;;3.90;99.90;;;;;;5064202;28;20526;-64
2023/01/10 00:07:50;;;;;;;7.63;2.83;;;3.90;99.90;;;;;;5064957;28;20063;-64
2023/01/10 00:10:16;;;;;;;8.77;2.97;;;3.90;99.90;;;;;;5063065;28;20396;-63
2023/01/10 00:15:26;;;;;;;4.35;2.35;;;3.90;99.90;;;;;;5064259;28;20136;-63
2023/01/10 00:17:51;;;;;;;4.53;2.10;;;3.90;99.90;;;;;;5064050;28;20130;-64
2023/01/10 00:20:17;;;;;;;5.00;2.60;;;3.90;99.90;;;;;;5060881;28;20055;-63
2023/01/10 00:22:44;;;;;;;5.80;2.22;;;3.90;99.90;;;;;;5065613;28;20408;-63
2023/01/10 00:25:10;;;;;;;5.15;2.20;;;4.00;99.90;;;;;;5066055;28;20025;-63
2023/01/10 00:27:35;;;;;;;5.85;2.30;;;4.00;99.90;;;;;;5065276;28;20790;-64
2023/01/10 00:30:12;;;;;;;6.45;2.17;;;4.00;99.90;;;;;;5064560;28;20037;-64
2023/01/10 00:32:41;;;;;;;8.80;1.92;;;4.00;99.90;;;;;;5058785;28;20343;-63
2023/01/10 00:35:08;;;;;;;5.32;2.17;;;4.00;99.90;;;;;;5065742;28;20029;-64
2023/01/10 00:37:34;;;;;;;4.80;2.00;;;4.00;99.90;;;;;;5062106;28;20091;-63
2023/01/10 00:39:59;;;;;;;4.05;2.15;;;3.90;99.90;;;;;;5071433;28;20121;-63
2023/01/10 00:45:10;;;;;;;6.47;2.58;;;3.90;99.90;;;;;;5060866;28;20150;-63
2023/01/10 00:47:36;;;;;;;5.38;2.17;;;3.90;99.90;;;;;;5068315;28;20486;-63
2023/01/10 00:50:04;;;;;;;6.13;1.90;;;3.90;99.90;;;;;;5067026;28;20072;-64
2023/01/10 00:52:30;;;;;;;5.43;2.60;;;3.90;99.90;;;;;;5060799;28;20028;-63
2023/01/10 00:54:56;;;;;;;5.22;2.88;;;3.90;99.90;;;;;;5065131;28;20051;-64
2023/01/10 00:57:21;;;;;;;5.40;2.40;;;3.90;99.90;;;;;;5065565;28;20016;-65
2023/01/10 00:59:47;;;;;;;6.00;2.50;;;3.90;99.90;;;;;;5066947;28;20033;-63
2023/01/10 01:02:12;;;;;;;6.38;2.50;;;3.90;99.90;;;;;;5068041;28;20412;-64
2023/01/10 01:04:38;;;;;;;3.65;2.10;;;3.90;99.90;;;;;;5070925;28;20086;-62
2023/01/10 01:07:04;;;;;;;5.78;2.55;;;3.90;99.90;;;;;;5066295;28;20033;-64
2023/01/10 01:09:29;;;;;;;6.15;2.55;;;3.80;99.90;;;;;;5067203;28;20067;-63
2023/01/10 01:11:55;;;;;;;4.90;2.40;;;3.80;99.90;;;;;;5067471;28;20029;-63
2023/01/10 01:14:22;;;;;;;5.13;2.25;;;3.80;99.90;;;;;;5067510;28;20174;-63
2023/01/10 01:16:48;;;;;;;4.63;2.35;;;3.80;99.90;;;;;;5064639;28;20032;-63
2023/01/10 01:19:14;;;;;;;5.85;1.90;;;3.80;99.90;;;;;;5069531;28;20040;-64
2023/01/10 01:21:40;;;;;;;5.45;2.10;;;3.90;99.90;;;;;;5064563;28;20033;-63
2023/01/10 01:24:05;;;;;;;5.00;2.40;;;3.80;99.90;;;;;;5057576;28;20042;-64
2023/01/10 01:26:31;;;;;;;6.32;2.55;;;3.80;99.90;;;;;;5067812;28;20051;-63
2023/01/10 01:28:58;;;;;;;6.70;2.45;;;3.80;99.90;;;;;;5068921;28;20048;-63
2023/01/10 01:31:23;;;;;;;5.25;2.38;;;3.80;99.90;;;;;;5064300;28;20688;-64
2023/01/10 01:33:50;;;;;;;5.60;2.78;;;3.80;99.90;;;;;;5062016;28;20052;-63
2023/01/10 01:36:16;;;;;;;4.53;2.28;;;3.80;99.90;;;;;;5069420;28;20029;-64
2023/01/10 01:38:41;;;;;;;6.68;2.60;;;3.80;99.90;;;;;;5075475;28;20077;-64
2023/01/10 01:41:55;;;;;;;6.40;2.50;;;3.80;99.90;;;;;;5069845;28;20536;-63
2023/01/10 01:44:02;;;;;;;6.55;3.13;;;3.80;99.90;;;;;;5069515;28;20040;-64
2023/01/10 01:46:30;;;;;;;7.78;2.92;;;3.90;99.90;;;;;;5069403;28;20123;-64
2023/01/10 01:48:55;;;;;;;7.93;3.38;;;3.80;99.90;;;;;;5068560;28;20111;-64
2023/01/10 01:51:25;;;;;;;5.43;3.00;;;3.90;99.90;;;;;;5069164;28;20481;-64
2023/01/10 01:54:12;;;;;;;8.63;3.67;;;3.90;99.90;;;;;;5068886;28;20071;-64
2023/01/10 01:56:50;;;;;;;6.20;3.47;;;3.90;99.90;;;;;;5072951;28;20040;-64
2023/01/10 01:59:25;;;;;;;7.75;3.42;;;4.00;99.90;;;;;;5065854;28;20033;-63
2023/01/10 02:01:57;;;;;;;7.20;3.47;;;3.90;99.90;;;;;;5062702;28;20424;-63
2023/01/10 02:04:29;;;;;;;9.15;3.83;;;3.90;99.90;;;;;;5061228;28;20029;-64
2023/01/10 02:06:56;;;;;;;7.63;3.47;;;4.00;99.90;;;;;;5069618;28;20060;-64
2023/01/10 02:09:41;;;;;;;8.15;3.88;;;4.00;99.90;;;;;;5072173;28;20032;-63
2023/01/10 02:12:07;;;;;;;6.57;3.25;;;3.90;99.90;;;;;;5070217;28;20102;-64
2023/01/10 02:14:35;;;;;;;7.75;3.42;;;4.00;99.90;;;;;;5068688;28;20031;-63
2023/01/10 02:17:00;;;;;;;7.90;3.15;;;4.00;99.90;;;;;;5069217;28;20061;-65
2023/01/10 02:19:42;;;;;;;6.93;3.33;;;3.90;99.90;;;;;;5068422;28;20231;-64
2023/01/10 02:22:38;;;;;;;6.05;3.05;;;3.90;99.90;;;;;;5068964;28;20040;-64
2023/01/10 02:25:23;;;;;;;7.22;3.00;;;4.00;99.90;;;;;;5069406;28;20085;-63
2023/01/10 02:28:19;;;;;;;6.10;3.17;;;4.00;99.90;;;;;;5068877;28;20064;-63
2023/01/10 02:31:14;;;;;;;8.25;3.35;;;4.00;99.90;;;;;;5059158;28;20040;-64
2023/01/10 02:34:06;;;;;;;6.30;3.25;;;4.00;99.90;;;;;;5068250;28;20079;-63
2023/01/10 02:36:45;;;;;;;7.68;3.65;;;4.00;99.90;;;;;;5040186;28;20096;-63
2023/01/10 02:39:18;;;;;;;7.60;3.72;;;4.00;99.90;;;;;;5065323;28;20078;-64
2023/01/10 02:42:08;;;;;;;8.07;3.92;;;4.00;99.90;;;;;;5066994;28;20116;-63
2023/01/10 02:44:53;;;;;;;9.02;4.50;;;4.10;99.90;;;;;;5064192;28;20028;-63
2023/01/10 02:47:19;;;;;;;7.82;4.18;;;4.00;99.90;;;;;;5066254;28;20037;-62
2023/01/10 02:49:47;;;;;;;8.90;4.43;;;4.00;99.90;;;;;;5077986;28;20024;-62
2023/01/10 02:52:26;;;;;;;12.30;4.25;;;4.10;99.90;;;;;;5067844;28;20030;-64
2023/01/10 02:54:58;;;;;;;8.65;4.20;;;4.10;99.90;;;;;;5068439;28;20030;-64
2023/01/10 02:57:45;;;;;;;9.50;4.05;;;4.10;99.90;;;;;;5067670;28;20517;-64
2023/01/10 03:00:23;;;;;;;9.85;4.55;;;4.10;99.90;;;;;;5064431;28;20045;-64
2023/01/10 03:03:14;;;;;;;10.10;4.07;;;4.10;99.90;;;;;;5066486;28;20037;-63
2023/01/10 03:05:58;;;;;;;9.32;4.30;;;4.10;99.90;;;;;;5068674;28;20031;-63
2023/01/10 03:08:48;;;;;;;10.55;4.50;;;4.20;99.90;;;;;;5068032;28;20489;-63
2023/01/10 03:11:14;;;;;;;10.10;4.75;;;4.20;99.90;;;;;;5067595;28;20628;-64
2023/01/10 03:13:45;;;;;;;9.07;3.83;;;4.20;99.90;;;;;;5068607;28;20108;-63
2023/01/10 03:16:21;;;;;;;11.77;4.53;;;4.20;99.90;;;;;;5067569;28;20052;-63
2023/01/10 03:18:53;;;;;;;8.70;4.28;;;4.20;99.90;;;;;;5069386;28;20028;-64
2023/01/10 03:21:21;;;;;;;8.80;4.45;;;4.20;99.90;;;;;;5068757;28;20054;-63
2023/01/10 03:23:49;;;;;;;8.43;4.18;;;4.20;99.90;;;;;;5068493;28;20089;-62
2023/01/10 03:26:19;;;;;;;6.28;3.53;;;4.20;99.90;;;;;;5067603;28;20032;-64
2023/01/10 03:28:51;;;;;;;7.93;4.00;;;4.20;99.90;;;;;;5066752;28;20072;-63
2023/01/10 03:31:22;;;;;;;6.13;3.40;;;4.20;99.90;;;;;;5067929;28;20036;-63
2023/01/10 03:33:48;;;;;;;7.18;3.22;;;4.30;99.90;;;;;;5068412;28;20362;-64
2023/01/10 03:36:30;;;;;;;5.18;2.92;;;4.30;99.90;;;;;;5067874;28;20043;-64
2023/01/10 03:39:16;;;;;;;5.47;2.97;;;4.20;99.90;;;;;;5058798;28;20403;-64
2023/01/10 03:41:54;;;;;;;4.00;2.50;;;4.20;99.90;;;;;;5068268;28;20036;-63
2023/01/10 03:44:42;;;;;;;4.20;2.20;;;4.20;99.90;;;;;;5069625;28;20036;-62
2023/01/10 03:47:32;;;;;;;5.28;2.47;;;4.10;99.90;;;;;;5063174;28;20119;-64
2023/01/10 03:50:05;;;;;;;3.00;1.75;;;4.10;99.90;;;;;;5061589;28;20750;-63
2023/01/10 03:52:33;;;;;;;4.45;2.30;;;4.10;99.90;;;;;;5065100;28;20496;-64
2023/01/10 03:55:01;;;;;;;3.63;2.25;;;4.10;99.90;;;;;;5068178;28;20154;-63
2023/01/10 03:57:27;;;;;;;3.30;1.73;;;4.10;99.90;;;;;;5065454;28;20044;-64
2023/01/10 03:59:58;;;;;;;4.57;1.70;;;4.10;99.90;;;;;;5070588;28;20047;-64
2023/01/10 04:02:28;;;;;;;4.38;1.80;;;4.10;99.90;;;;;;5055860;28;20779;-63
2023/01/10 04:04:54;;;;;;;3.28;1.70;;;4.10;99.90;;;;;;5055529;28;20029;-62
2023/01/10 04:07:20;;;;;;;2.45;1.50;;;4.10;99.90;;;;;;5051593;28;20067;-63
2023/01/10 04:09:45;;;;;;;2.30;1.27;;;4.00;99.90;;;;;;5062694;28;20016;-64
2023/01/10 04:12:11;;;;;;;1.90;1.10;;;4.00;99.90;;;;;;5074118;28;20028;-62
2023/01/10 04:14:37;;;;;;;2.38;1.08;;;4.00;99.90;;;;;;5064393;28;20028;-63
2023/01/10 04:17:02;;;;;;;3.15;1.10;;;4.00;99.90;;;;;;5058242;28;20028;-64
2023/01/10 04:19:28;;;;;;;2.25;1.08;;;4.00;99.90;;;;;;5057727;28;20024;-63
2023/01/10 04:21:54;;;;;;;2.20;1.00;;;4.00;99.90;;;;;;5061395;28;20032;-63
2023/01/10 04:24:19;;;;;;;2.67;0.98;;;4.00;99.90;;;;;;5056002;28;20056;-64
2023/01/10 04:26:45;;;;;;;1.63;1.00;;;4.00;99.90;;;;;;5059765;28;20057;-63
2023/01/10 04:29:11;;;;;;;1.98;1.20;;;4.00;99.90;;;;;;5050502;28;20516;-64
2023/01/10 04:31:38;;;;;;;2.90;1.20;;;3.90;99.90;;;;;;5056289;28;20132;-63
2023/01/10 04:34:05;;;;;;;2.67;1.30;;;3.90;99.90;;;;;;5062713;28;20052;-63
2023/01/10 04:36:30;;;;;;;4.05;1.23;;;3.90;99.90;;;;;;5060071;28;20035;-64
2023/01/10 04:38:56;;;;;;;2.60;1.20;;;3.90;99.90;;;;;;5071663;28;20036;-64
2023/01/10 04:41:21;;;;;;;2.05;1.30;;;3.90;99.90;;;;;;5065493;28;20330;-63
2023/01/10 04:43:48;;;;;;;3.03;1.58;;;3.90;99.90;;;;;;5062524;28;20086;-63
2023/01/10 04:46:14;;;;;;;3.63;1.90;;;3.90;99.90;;;;;;5062855;28;20056;-63
2023/01/10 04:48:40;;;;;;;4.72;1.90;;;3.90;99.90;;;;;;5057433;28;20024;-63
2023/01/10 04:51:06;;;;;;;4.65;2.28;;;3.90;99.90;;;;;;5065033;28;20130;-62
2023/01/10 04:53:31;;;;;;;6.63;2.60;;;3.90;99.90;;;;;;5073876;28;20028;-64
2023/01/10 04:56:09;;;;;;;4.35;2.53;;;3.90;99.90;;;;;;5066684;28;20465;-64
2023/01/10 04:58:36;;;;;;;5.70;2.17;;;4.00;99.90;;;;;;5057775;28;20144;-65
2023/01/10 05:01:19;;;;;;;8.68;2.40;;;3.90;99.90;;;;;;5061131;28;20158;-63
2023/01/10 05:03:47;;;;;;;7.10;2.00;;;4.00;99.90;;;;;;5064882;28;20534;-64
2023/01/10 05:06:13;;;;;;;5.78;2.63;;;4.00;99.90;;;;;;5066724;28;20024;-64
2023/01/10 05:08:39;;;;;;;7.88;2.60;;;4.00;99.90;;;;;;5062328;28;20052;-63
2023/01/10 05:11:05;;;;;;;4.63;2.38;;;4.00;99.90;;;;;;5067667;28;20512;-63
2023/01/10 05:13:30;;;;;;;7.47;2.10;;;4.00;99.90;;;;;;5069922;28;20047;-63
2023/01/10 05:15:57;;;;;;;11.63;2.53;;;4.00;99.90;;;;;;5068201;28;20032;-63
2023/01/10 05:18:27;;;;;;;5.57;2.40;;;4.00;99.90;;;;;;5066464;28;20469;-64
2023/01/10 05:20:58;;;;;;;7.47;2.67;;;3.90;99.90;;;;;;5068956;28;20086;-63
2023/01/10 05:23:24;;;;;;;6.75;1.98;;;3.90;99.90;;;;;;5068848;28;20063;-64
2023/01/10 05:25:49;;;;;;;6.18;2.65;;;3.90;99.90;;;;;;5066083;28;20044;-63
2023/01/10 05:28:15;;;;;;;9.95;2.50;;;3.80;99.90;;;;;;5067165;28;20133;-63
2023/01/10 05:30:40;;;;;;;5.72;2.40;;;3.80;99.90;;;;;;5063899;28;20033;-61
2023/01/10 05:33:06;;;;;;;9.27;2.40;;;3.80;99.90;;;;;;5065690;28;20496;-62
2023/01/10 05:35:32;;;;;;;9.60;2.45;;;3.80;99.90;;;;;;5064278;28;20536;-65
2023/01/10 05:37:58;;;;;;;11.15;2.55;;;3.70;99.90;;;;;;5066489;28;20512;-64
2023/01/10 05:40:24;;;;;;;7.55;2.88;;;3.70;99.90;;;;;;5068180;28;20037;-64
2023/01/10 05:42:49;;;;;;;6.88;2.65;;;3.70;99.90;;;;;;5072760;28;20116;-65
2023/01/10 05:45:15;;;;;;;10.63;2.92;;;3.70;99.90;;;;;;5063454;28;20020;-64
2023/01/10 05:47:40;;;;;;;12.70;3.58;;;3.70;99.90;;;;;;5066664;28;20074;-63
2023/01/10 05:50:07;;;;;;;15.00;3.60;;;3.80;99.90;;;;;;5063461;28;20037;-63
2023/01/10 05:52:32;;;;;;;7.90;3.95;;;3.80;99.90;;;;;;5061210;28;20107;-62
2023/01/10 05:54:58;;;;;;;8.27;3.58;;;3.80;99.90;;;;;;5059364;28;20034;-62
2023/01/10 05:57:23;;;;;;;7.63;3.92;;;3.80;99.90;;;;;;5067732;28;20059;-62
2023/01/10 05:59:50;;;;;;;14.77;4.07;;;3.80;99.90;;;;;;5058362;28;20116;-64
2023/01/10 06:02:16;;;;;;;11.63;3.95;;;3.80;99.90;;;;;;5059910;28;20806;-64
2023/01/10 06:04:41;;;;;;;14.43;4.20;;;3.80;99.90;;;;;;5062447;28;20026;-64
2023/01/10 06:07:07;;;;;;;12.27;4.55;;;3.80;99.90;;;;;;5063381;28;20036;-63
2023/01/10 06:09:32;;;;;;;14.27;4.75;;;3.80;99.90;;;;;;5065649;28;20420;-64
2023/01/10 06:11:58;;;;;;;13.88;5.07;;;3.80;99.90;;;;;;5068927;28;20040;-63
2023/01/10 06:14:24;;;;;;;12.50;5.15;;;3.80;99.90;;;;;;5068385;28;20116;-64
2023/01/10 06:16:49;;;;;;;9.55;4.32;;;3.80;99.90;;;;;;5060885;28;20032;-63
2023/01/10 06:19:15;;;;;;;12.45;5.03;;;3.90;99.90;;;;;;5068013;28;20029;-64
2023/01/10 06:21:41;;;;;;;18.20;5.18;;;3.90;99.90;;;;;;5066659;28;20110;-66
2023/01/10 06:24:07;;;;;;;13.18;5.20;;;3.90;99.90;;;;;;5071980;28;20398;-64
2023/01/10 06:26:33;;;;;;;17.70;5.22;;;3.80;99.90;;;;;;5060912;28;20024;-64
2023/01/10 06:28:59;;;;;;;16.02;5.50;;;3.80;99.90;;;;;;5064829;28;20090;-64
2023/01/10 06:31:25;;;;;;;17.88;5.50;;;3.90;99.90;;;;;;5061111;28;20074;-65
2023/01/10 06:33:51;;;;;;;17.35;5.40;;;3.90;99.90;;;;;;5071017;28;20037;-63
2023/01/10 06:36:17;;;;;;;15.90;5.47;;;3.80;99.90;;;;;;5062866;28;20480;-64
2023/01/10 06:38:42;;;;;;;13.57;4.68;;;3.90;99.90;;;;;;5066455;28;20068;-64
2023/01/10 06:41:14;;;;;;;14.60;5.18;;;3.90;99.90;;;;;;5067689;28;20032;-63
2023/01/10 06:43:41;;;;;;;18.17;5.75;;;3.90;99.90;;;;;;5087554;28;20220;-64
2023/01/10 06:46:08;;;;;;;14.88;5.55;;;3.90;99.90;;;;;;5086264;28;20021;-64
2023/01/10 06:48:35;;;;;;;16.02;5.32;;;3.90;99.90;;;;;;5081727;28;20036;-64
2023/01/10 06:51:01;;;;;;;12.23;4.38;;;3.90;99.90;;;;;;5086538;28;20469;-64
2023/01/10 06:53:27;;;;;;;17.75;5.38;;;3.90;99.90;;;;;;5084728;28;20031;-64
2023/01/10 06:55:54;;;;;;;19.35;5.15;;;3.80;99.90;;;;;;5090320;28;20106;-64
2023/01/10 06:58:20;;;;;;;13.00;4.47;;;3.80;99.90;;;;;;5078892;28;20213;-65
2023/01/10 07:00:45;;;;;;;12.32;4.60;;;3.80;99.90;;;;;;5079348;28;20090;-65
2023/01/10 07:03:11;;;;;;;17.35;4.85;;;3.80;99.90;;;;;;5076905;28;20451;-65
2023/01/10 07:05:37;;;;;;;18.73;4.60;;;3.80;99.90;;;;;;5079072;28;20023;-63
2023/01/10 07:08:02;;;;;;;24.75;5.28;;;3.80;99.90;;;;;;5074888;28;20062;-66
2023/01/10 07:10:28;;;;;;;16.27;4.53;;;3.80;99.90;;;;;;5071356;28;20032;-67
2023/01/10 07:12:55;;;;;;;22.58;5.32;;;3.80;99.90;;;;;;5069258;28;20032;-67
2023/01/10 07:15:21;;;;;;;14.43;4.65;;;3.70;99.90;;;;;;5079448;28;20429;-65
2023/01/10 07:17:46;;;;;;;18.40;5.20;;;3.80;99.90;;;;;;5083124;28;20107;-63
2023/01/10 07:20:12;;;;;;;15.07;4.38;;;3.80;99.90;;;;;;5086542;28;20388;-65
2023/01/10 07:22:38;;;;;;;15.07;4.50;;;3.70;99.90;;;;;;5081521;28;20097;-64
2023/01/10 07:25:05;;;;;;;15.77;4.68;;;3.80;99.90;;;;;;5085345;28;20465;-65
2023/01/10 07:27:31;;;;;;;17.15;4.43;;;3.70;99.90;;;;;;5082801;28;21368;-65
2023/01/10 07:29:57;;;;;;;18.48;4.55;;;3.70;99.90;;;;;;5084627;28;20786;-63
2023/01/10 07:32:23;;;;;;;21.65;4.70;;;3.70;99.90;;;;;;5086489;28;20032;-67
2023/01/10 07:34:49;;;;;;;21.55;4.43;;;3.70;99.90;;;;;;5093426;28;20027;-63
2023/01/10 07:37:15;;;;;;;20.45;4.47;;;3.70;99.90;;;;;;5087961;28;20051;-63
2023/01/10 07:39:41;;;;;;;16.80;5.30;;;3.70;99.90;;;;;;5087472;28;20036;-63
2023/01/10 07:42:08;;;;;;;24.35;4.35;;;3.70;99.90;;;;;;5086321;28;20044;-65
2023/01/10 07:44:34;;;;;;;17.27;4.05;;;3.70;99.90;;;;;;5091893;28;20036;-64
2023/01/10 07:46:59;;;;;;;15.35;4.15;;;3.70;99.90;;;;;;5090373;28;20093;-65
2023/01/10 07:49:25;;;;;;;20.27;3.83;;;3.70;99.90;;;;;;5091940;28;20080;-65
2023/01/10 07:51:51;;;;;;;18.95;3.65;;;3.70;99.90;;;;;;5090625;28;20384;-65
2023/01/10 07:54:16;;;;;;;17.20;3.83;;;3.70;99.90;;;;;;5087912;28;20043;-63
2023/01/10 07:56:42;;;;;;;15.65;3.75;;;3.70;99.90;;;;;;5091509;28;20031;-64
2023/01/10 07:59:08;;;;;;;27.27;4.10;;;3.70;99.90;;;;;;5092146;28;20036;-64
2023/01/10 08:01:34;;;;;;;18.75;4.13;;;3.70;99.90;;;;;;5090064;28;20036;-65
2023/01/10 08:04:00;;;;;;;12.75;4.43;;;3.70;99.90;;;;;;5088358;28;20044;-64
2023/01/10 08:06:25;;;;;;;20.92;3.92;;;3.70;99.90;;;;;;5091075;28;20067;-66
2023/01/10 08:08:51;;;;;;;17.27;3.95;;;3.70;99.90;;;;;;5090618;28;20036;-64
2023/01/10 08:11:17;;;;;;;17.50;3.53;;;3.70;99.90;;;;;;5082055;28;20751;-64
2023/01/10 08:13:42;;;;;;;15.27;3.80;;;3.70;99.90;;;;;;5093721;28;20038;-63
2023/01/10 08:16:08;;;;;;;22.83;3.20;;;3.70;99.90;;;;;;5091473;28;20503;-64
2023/01/10 08:18:34;;;;;;;14.57;3.17;;;3.70;99.90;;;;;;5090607;28;20039;-62
2023/01/10 08:21:00;;;;;;;10.38;2.97;;;3.80;99.90;;;;;;5091808;28;20028;-65
2023/01/10 08:23:26;;;;;;;14.65;3.35;;;3.70;99.90;;;;;;5072162;28;20505;-65
2023/01/10 08:25:53;;;;;;;14.32;3.05;;;3.80;99.90;;;;;;5086620;28;20032;-64
2023/01/10 08:28:18;;;;;;;11.60;2.65;;;3.80;99.90;;;;;;5083972;28;20159;-64
2023/01/10 08:30:44;;;;;;;15.82;2.90;;;3.80;99.90;;;;;;5083698;28;20115;-65
2023/01/10 08:33:11;;;;;;;16.10;3.08;;;3.80;99.90;;;;;;5083494;28;20694;-68
2023/01/10 08:35:38;;;;;;;12.98;3.03;;;3.80;99.90;;;;;;5098944;28;20040;-64
2023/01/10 08:38:04;;;;;;;11.93;2.58;;;3.80;99.90;;;;;;5072013;28;20101;-65
2023/01/10 08:40:30;;;;;;;17.90;3.30;;;3.70;99.90;;;;;;5090782;28;20353;-64
2023/01/10 08:43:01;;;;;;;22.05;3.42;;;3.80;99.90;;;;;;5090931;28;20032;-64
2023/01/10 08:45:27;;;;;;;16.33;3.22;;;3.80;99.90;;;;;;5088895;28;20032;-65
2023/01/10 08:47:53;;;;;;;19.80;3.25;;;3.70;99.90;;;;;;5081514;28;20068;-63
2023/01/10 08:50:19;;;;;;;16.05;3.38;;;3.70;99.90;;;;;;5085584;28;20461;-64
2023/01/10 08:52:45;;;;;;;15.88;3.25;;;3.80;99.90;;;;;;5086589;28;20028;-64
2023/01/10 08:55:11;;;;;;;13.40;3.33;;;3.80;99.90;;;;;;5089877;28;20032;-64
2023/01/10 08:57:36;;;;;;;25.67;3.70;;;3.90;99.90;;;;;;5092739;28;20032;-64
2023/01/10 09:00:04;;;;;;;20.67;3.47;;;3.90;99.90;;;;;;5090707;28;20040;-64
2023/01/10 09:02:29;;;;;;;11.95;3.10;;;3.90;99.90;;;;;;5092666;28;20028;-65
2023/01/10 09:04:55;;;;;;;21.58;3.97;;;3.90;99.90;;;;;;5090042;28;20393;-64
2023/01/10 09:07:21;;;;;;;15.35;3.42;;;3.90;99.90;;;;;;5083092;28;20037;-63
2023/01/10 09:09:46;;;;;;;19.70;3.42;;;3.90;99.90;;;;;;5086590;28;20110;-63
2023/01/10 09:14:56;;;;;;;10.90;3.13;;;4.00;99.90;;;;;;5090422;28;20507;-64
2023/01/10 09:17:22;;;;;;;19.85;3.47;;;4.00;99.90;;;;;;5085531;28;20028;-63
2023/01/10 09:19:47;;;;;;;14.75;3.17;;;4.00;99.90;;;;;;5088673;28;20048;-63
2023/01/10 09:22:13;;;;;;;14.63;3.55;;;4.00;99.90;;;;;;5087770;28;20071;-63
2023/01/10 09:24:40;;;;;;;11.40;3.50;;;4.00;99.90;;;;;;5089727;28;20032;-62
2023/01/10 09:27:06;;;;;;;14.70;4.50;;;4.00;99.90;;;;;;5088720;28;20507;-64
2023/01/10 09:29:32;;;;;;;12.15;3.05;;;4.00;99.90;;;;;;5082221;28;20040;-64
2023/01/10 09:31:57;;;;;;;14.27;3.53;;;4.00;99.90;;;;;;5082165;28;20032;-63
2023/01/10 09:34:23;;;;;;;14.80;3.00;;;4.00;99.90;;;;;;5085058;28;20032;-64
2023/01/10 09:36:49;;;;;;;14.95;2.42;;;4.00;99.90;;;;;;5085738;28;20051;-64
2023/01/10 09:39:15;;;;;;;12.52;3.10;;;4.00;99.90;;;;;;5084490;28;20465;-63
2023/01/10 09:41:52;;;;;;;20.23;3.25;;;4.00;99.90;;;;;;5083186;28;20028;-63
2023/01/10 09:44:35;;;;;;;10.85;2.72;;;4.00;99.90;;;;;;5089775;28;20055;-63
2023/01/10 09:47:27;;;;;;;13.60;2.47;;;3.90;99.90;;;;;;5082279;28;20497;-64
2023/01/10 09:50:24;;;;;;;9.93;2.45;;;3.90;99.90;;;;;;5082372;28;20059;-63
2023/01/10 09:52:54;;;;;;;16.67;2.75;;;3.90;99.90;;;;;;5088929;28;20097;-63
2023/01/10 09:55:31;;;;;;;9.40;2.35;;;3.90;99.90;;;;;;5090020;28;20106;-64
2023/01/10 09:58:19;;;;;;;8.68;2.60;;;3.90;99.90;;;;;;5081010;28;20483;-64
2023/01/10 10:00:55;;;;;;;8.98;2.30;;;3.90;99.90;;;;;;5085728;28;20032;-63
2023/01/10 10:03:42;;;;;;;13.95;3.38;;;4.00;99.90;;;;;;5074123;28;20043;-63
2023/01/10 10:06:12;;;;;;;13.48;2.42;;;4.00;99.90;;;;;;5083583;28;20028;-62
2023/01/10 10:08:40;;;;;;;13.88;2.55;;;4.10;99.90;;;;;;5095921;28;20036;-63
2023/01/10 10:11:25;;;;;;;14.75;3.33;;;4.10;99.90;;;;;;5083270;28;20067;-64
2023/01/10 10:14:35;;;;;;;16.42;2.83;;;4.10;99.90;;;;;;5063010;28;20520;-63
2023/01/10 10:17:14;;;;;;;15.35;2.97;;;4.10;99.90;;;;;;5077853;28;20051;-63
2023/01/10 10:20:09;;;;;;;18.98;3.05;;;4.20;99.90;;;;;;5086353;28;20035;-63
2023/01/10 10:22:38;;;;;;;10.32;3.03;;;4.30;99.90;;;;;;5074227;28;20069;-63
2023/01/10 10:25:26;;;;;;;12.73;3.05;;;4.30;99.90;;;;;;5079335;28;20023;-64
2023/01/10 10:28:11;;;;;;;15.13;3.30;;;4.40;99.90;;;;;;5085345;28;20125;-63
2023/01/10 10:30:41;;;;;;;17.40;3.83;;;4.40;99.90;;;;;;5087158;28;20024;-64
2023/01/10 10:33:16;;;;;;;14.23;3.47;;;4.40;99.90;;;;;;5078670;28;20115;-63
2023/01/10 10:35:49;;;;;;;15.52;3.17;;;4.40;99.90;;;;;;5082767;28;20713;-64
2023/01/10 10:38:32;;;;;;;13.45;3.08;;;4.40;99.90;;;;;;5087380;28;20042;-64
2023/01/10 10:41:00;;;;;;;9.10;3.00;;;4.40;99.90;;;;;;5088316;28;20042;-64
2023/01/10 10:43:32;;;;;;;15.80;3.15;;;4.40;99.90;;;;;;5085364;28;20460;-64
2023/01/10 10:46:11;;;;;;;14.40;3.03;;;4.40;99.90;;;;;;5077363;28;20035;-64
2023/01/10 10:48:59;;;;;;;10.25;2.80;;;4.40;99.90;;;;;;5081741;28;20024;-64
2023/01/10 10:51:48;;;;;;;9.63;3.20;;;4.40;99.90;;;;;;5081274;28;20035;-64
2023/01/10 10:54:15;;;;;;;19.90;3.92;;;4.40;99.90;;;;;;5079366;28;20150;-63
2023/01/10 10:56:42;;;;;;;13.85;3.28;;;4.40;99.90;;;;;;5084012;28;20127;-63
2023/01/10 10:59:11;;;;;;;11.15;2.90;;;4.30;99.90;;;;;;5088437;28;20396;-65
2023/01/10 11:01:36;;;;;;;8.48;2.50;;;4.30;99.90;;;;;;5088761;28;20036;-64
2023/01/10 11:04:09;;;;;;;10.02;2.65;;;4.20;99.90;;;;;;5088274;28;20398;-63
2023/01/10 11:06:37;;;;;;;15.50;2.83;;;4.30;99.90;;;;;;5086083;28;20500;-64
2023/01/10 11:09:05;;;;;;;13.02;3.13;;;4.30;99.90;;;;;;5088046;28;20092;-63
2023/01/10 11:11:43;;;;;;;12.32;2.70;;;4.30;99.90;;;;;;5078187;28;20036;-64
2023/01/10 11:14:08;;;;;;;11.10;2.85;;;4.30;99.90;;;;;;5084712;28;20039;-64
2023/01/10 11:16:40;;;;;;;11.30;3.03;;;4.30;99.90;;;;;;5083719;28;20116;-63
2023/01/10 11:19:10;;;;;;;6.57;2.55;;;4.30;99.90;;;;;;5086281;28;20039;-64
2023/01/10 11:21:39;;;;;;;9.68;2.88;;;4.30;99.90;;;;;;5081822;28;20492;-63
2023/01/10 11:24:24;;;;;;;9.57;2.45;;;4.40;99.90;;;;;;5087031;28;20028;-63
2023/01/10 11:26:50;;;;;;;7.63;2.38;;;4.40;99.90;;;;;;5086290;28;20048;-63
2023/01/10 11:29:23;;;;;;;12.30;2.30;;;4.40;99.90;;;;;;5075379;28;20040;-63
2023/01/10 11:31:50;;;;;;;11.57;3.08;;;4.40;99.90;;;;;;5090160;28;20114;-65
2023/01/10 11:34:32;;;;;;;9.27;2.38;;;4.40;99.90;;;;;;5086710;28;20038;-64
2023/01/10 11:36:59;;;;;;;14.55;2.47;;;4.40;99.90;;;;;;5075717;28;20016;-64
2023/01/10 11:39:26;;;;;;;11.02;2.33;;;4.50;99.90;;;;;;5086476;28;20043;-64
2023/01/10 11:41:54;;;;;;;9.63;3.00;;;4.50;99.90;;;;;;5077904;28;20082;-64
2023/01/10 11:44:27;;;;;;;14.07;2.63;;;4.50;99.90;;;;;;5086120;28;20054;-64
2023/01/10 11:47:00;;;;;;;10.15;2.45;;;4.60;99.90;;;;;;5081781;28;20051;-64
2023/01/10 11:49:39;;;;;;;12.48;2.55;;;4.50;99.90;;;;;;5087072;28;20713;-64
2023/01/10 11:52:27;;;;;;;11.07;2.10;;;4.60;99.90;;;;;;5084308;28;20032;-64
2023/01/10 11:54:56;;;;;;;12.65;2.38;;;4.60;99.90;;;;;;5083652;28;20033;-65
2023/01/10 11:57:25;;;;;;;7.60;1.77;;;4.60;99.90;;;;;;5086411;28;20085;-64
2023/01/10 12:00:00;;;;;;;8.90;2.10;;;4.40;99.90;;;;;;5085907;28;20040;-66
2023/01/10 12:02:33;;;;;;;11.40;2.13;;;4.30;99.90;;;;;;5086376;28;20032;-65
2023/01/10 12:05:04;;;;;;;9.43;2.05;;;4.30;99.90;;;;;;5081198;28;20690;-66
2023/01/10 12:07:50;;;;;;;9.70;2.00;;;4.40;99.90;;;;;;5086351;28;20067;-64
2023/01/10 12:10:20;;;;;;;8.18;2.05;;;4.50;99.90;;;;;;5068861;28;20036;-65
2023/01/10 12:12:54;;;;;;;11.60;2.08;;;4.50;99.90;;;;;;5086721;28;20516;-64
2023/01/10 12:15:28;;;;;;;8.40;2.40;;;4.60;99.90;;;;;;5086057;28;20385;-63
2023/01/10 12:17:58;;;;;;;7.43;2.25;;;4.60;99.90;;;;;;5080389;28;20074;-64
2023/01/10 12:20:26;;;;;;;7.40;2.00;;;4.70;99.90;;;;;;5061860;28;20517;-65
2023/01/10 12:22:57;;;;;;;10.25;2.15;;;4.60;99.90;;;;;;5077653;28;20206;-65
2023/01/10 12:25:34;;;;;;;;;;;4.60;99.90;;;;;;5085486;28;20028;-66
2023/01/10 12:28:00;;;;;;;9.15;2.00;;;4.60;99.90;;;;;;5074484;28;19931;-64
2023/01/10 12:30:55;;;;;;;10.23;2.35;;;4.70;99.90;;;;;;5082557;28;20084;-64
2023/01/10 12:33:33;;;;;;;9.98;1.95;;;4.70;99.90;;;;;;5078706;28;20119;-64
2023/01/10 12:36:12;;;;;;;9.65;2.17;;;4.70;99.90;;;;;;5091459;28;20027;-65
2023/01/10 12:39:06;;;;;;;8.70;1.92;;;4.70;99.90;;;;;;5088413;28;20028;-64
2023/01/10 12:44:43;;;;;;;7.43;1.55;;;5.00;99.90;;;;;;5086340;28;20031;-64
2023/01/10 12:47:41;;;;;;;5.15;1.17;;;4.90;99.90;;;;;;5088924;28;20140;-65
2023/01/10 12:50:16;;;;;;;10.45;1.52;;;4.90;99.90;;;;;;5083319;28;20036;-66
2023/01/10 12:53:01;;;;;;;8.20;1.70;;;5.10;99.90;;;;;;5087929;28;20115;-68
2023/01/10 12:55:32;;;;;;;8.45;2.25;;;5.30;99.90;;;;;;5083496;28;20461;-63
2023/01/10 12:58:00;;;;;;;;;;;5.50;99.90;;;;;;5079865;28;20523;-64
2023/01/10 13:00:31;;;;;;;10.48;1.80;;;5.60;99.90;;;;;;5079694;28;19912;-65
2023/01/10 13:02:58;;;;;;;;;;;5.60;99.90;;;;;;5080688;28;20105;-63
2023/01/10 13:05:26;;;;;;;5.85;1.30;;;5.60;99.90;;;;;;5085394;28;19974;-64
2023/01/10 13:07:58;;;;;;;8.30;1.60;;;5.60;99.90;;;;;;5088316;28;20039;-64
2023/01/10 13:10:25;;;;;;;10.35;1.83;;;5.40;99.90;;;;;;5084633;28;20105;-64
2023/01/10 13:13:05;;;;;;;7.85;2.33;;;5.20;99.90;;;;;;5087464;28;20040;-64
2023/01/10 13:15:37;;;;;;;8.13;1.98;;;5.20;99.90;;;;;;5073967;28;20027;-65
2023/01/10 13:18:16;;;;;;;7.40;1.58;;;5.10;99.90;;;;;;5084850;28;20028;-64
2023/01/10 13:20:42;;;;;;;7.88;1.60;;;4.90;99.90;;;;;;5074870;28;20129;-65